sensor_id;sensor_type;location;lat;lon;timestamp;P1;durP1;ratioP1;P2;durP2;ratioP2
30299;SDS011;17110;52.602;12.998;2024-01-16T00:02:18;3.38;;;2.25;;
30299;SDS011;17110;52.602;12.998;2024-01-16T00:07:20;3.95;;;1.92;;
30299;SDS011;17110;52.602;12.998;2024-01-16T00:12:21;2.45;;;1.65;;
30299;SDS011;17110;52.602;12.998;2024-01-16T00:17:21;4.25;;;1.70;;
30299;SDS011;17110;52.602;12.998;2024-01-16T00:22:23;5.03;;;1.55;;
30299;SDS011;17110;52.602;12.998;2024-01-16T00:27:24;3.47;;;1.98;;
30299;SDS011;17110;52.602;12.998;2024-01-16T00:32:25;3.28;;;1.60;;
30299;SDS011;17110;52.602;12.998;2024-01-16T00:37:27;5.13;;;1.83;;
30299;SDS011;17110;52.602;12.998;2024-01-16T00:42:27;1.55;;;1.40;;
30299;SDS011;17110;52.602;12.998;2024-01-16T00:47:28;4.90;;;1.25;;
30299;SDS011;17110;52.602;12.998;2024-01-16T00:52:30;2.40;;;1.20;;
30299;SDS011;17110;52.602;12.998;2024-01-16T00:57:30;6.07;;;1.40;;
30299;SDS011;17110;52.602;12.998;2024-01-16T01:02:31;1.35;;;1.02;;
30299;SDS011;17110;52.602;12.998;2024-01-16T01:07:33;1.30;;;1.20;;
30299;SDS011;17110;52.602;12.998;2024-01-16T01:12:34;1.90;;;1.10;;
30299;SDS011;17110;52.602;12.998;2024-01-16T01:17:34;0.90;;;0.90;;
30299;SDS011;17110;52.602;12.998;2024-01-16T01:22:36;1.95;;;1.10;;
30299;SDS011;17110;52.602;12.998;2024-01-16T01:27:37;2.25;;;1.63;;
30299;SDS011;17110;52.602;12.998;2024-01-16T01:32:38;1.58;;;1.33;;
30299;SDS011;17110;52.602;12.998;2024-01-16T01:37:41;1.38;;;1.17;;
30299;SDS011;17110;52.602;12.998;2024-01-16T01:42:41;1.83;;;1.52;;
30299;SDS011;17110;52.602;12.998;2024-01-16T01:47:42;2.75;;;1.17;;
30299;SDS011;17110;52.602;12.998;2024-01-16T01:52:44;1.40;;;1.30;;
30299;SDS011;17110;52.602;12.998;2024-01-16T01:57:45;4.30;;;1.25;;
30299;SDS011;17110;52.602;12.998;2024-01-16T02:02:46;1.40;;;1.30;;
30299;SDS011;17110;52.602;12.998;2024-01-16T02:07:48;1.60;;;1.50;;
30299;SDS011;17110;52.602;12.998;2024-01-16T02:12:49;2.92;;;1.15;;
30299;SDS011;17110;52.602;12.998;2024-01-16T02:17:49;3.15;;;1.17;;
30299;SDS011;17110;52.602;12.998;2024-01-16T02:22:52;2.75;;;1.40;;
30299;SDS011;17110;52.602;12.998;2024-01-16T02:27:56;1.73;;;1.42;;
30299;SDS011;17110;52.602;12.998;2024-01-16T02:32:57;1.77;;;1.20;;
30299;SDS011;17110;52.602;12.998;2024-01-16T02:37:58;1.58;;;1.30;;
30299;SDS011;17110;52.602;12.998;2024-01-16T02:42:59;1.70;;;1.60;;
30299;SDS011;17110;52.602;12.998;2024-01-16T02:48:00;4.25;;;1.30;;
30299;SDS011;17110;52.602;12.998;2024-01-16T02:53:01;2.50;;;1.30;;
30299;SDS011;17110;52.602;12.998;2024-01-16T02:58:03;4.18;;;1.88;;
30299;SDS011;17110;52.602;12.998;2024-01-16T03:03:04;1.83;;;1.50;;
30299;SDS011;17110;52.602;12.998;2024-01-16T03:08:05;3.55;;;1.77;;
30299;SDS011;17110;52.602;12.998;2024-01-16T03:13:08;3.42;;;1.58;;
30299;SDS011;17110;52.602;12.998;2024-01-16T03:18:08;3.25;;;1.75;;
30299;SDS011;17110;52.602;12.998;2024-01-16T03:23:09;3.10;;;1.63;;
30299;SDS011;17110;52.602;12.998;2024-01-16T03:28:11;2.33;;;2.00;;
30299;SDS011;17110;52.602;12.998;2024-01-16T03:33:11;3.83;;;2.03;;
30299;SDS011;17110;52.602;12.998;2024-01-16T03:38:12;2.33;;;1.80;;
30299;SDS011;17110;52.602;12.998;2024-01-16T03:43:14;5.43;;;1.90;;
30299;SDS011;17110;52.602;12.998;2024-01-16T03:48:15;3.58;;;2.00;;
30299;SDS011;17110;52.602;12.998;2024-01-16T03:53:15;3.40;;;2.17;;
30299;SDS011;17110;52.602;12.998;2024-01-16T03:58:17;3.70;;;2.00;;
30299;SDS011;17110;52.602;12.998;2024-01-16T04:03:18;3.60;;;2.28;;
30299;SDS011;17110;52.602;12.998;2024-01-16T04:08:18;4.15;;;2.40;;
30299;SDS011;17110;52.602;12.998;2024-01-16T04:13:20;3.53;;;2.00;;
30299;SDS011;17110;52.602;12.998;2024-01-16T04:18:21;3.67;;;2.13;;
30299;SDS011;17110;52.602;12.998;2024-01-16T04:23:22;1.67;;;1.55;;
30299;SDS011;17110;52.602;12.998;2024-01-16T04:28:23;4.60;;;2.13;;
30299;SDS011;17110;52.602;12.998;2024-01-16T04:33:24;2.50;;;1.85;;
30299;SDS011;17110;52.602;12.998;2024-01-16T04:38:25;6.15;;;1.90;;
30299;SDS011;17110;52.602;12.998;2024-01-16T04:43:27;3.88;;;2.33;;
30299;SDS011;17110;52.602;12.998;2024-01-16T04:48:27;4.18;;;2.30;;
30299;SDS011;17110;52.602;12.998;2024-01-16T04:53:28;2.40;;;2.20;;
30299;SDS011;17110;52.602;12.998;2024-01-16T04:58:30;5.30;;;2.38;;
30299;SDS011;17110;52.602;12.998;2024-01-16T05:03:31;8.88;;;2.53;;
30299;SDS011;17110;52.602;12.998;2024-01-16T05:08:31;6.75;;;2.30;;
30299;SDS011;17110;52.602;12.998;2024-01-16T05:13:33;2.97;;;2.17;;
30299;SDS011;17110;52.602;12.998;2024-01-16T05:18:34;3.83;;;2.95;;
30299;SDS011;17110;52.602;12.998;2024-01-16T05:23:34;4.10;;;2.63;;
30299;SDS011;17110;52.602;12.998;2024-01-16T05:28:36;3.33;;;2.88;;
30299;SDS011;17110;52.602;12.998;2024-01-16T05:33:38;2.97;;;2.30;;
30299;SDS011;17110;52.602;12.998;2024-01-16T05:38:39;4.03;;;2.45;;
30299;SDS011;17110;52.602;12.998;2024-01-16T05:43:41;3.38;;;2.67;;
30299;SDS011;17110;52.602;12.998;2024-01-16T05:48:41;3.35;;;2.50;;
30299;SDS011;17110;52.602;12.998;2024-01-16T05:53:42;4.60;;;3.03;;
30299;SDS011;17110;52.602;12.998;2024-01-16T05:58:44;8.32;;;3.53;;
30299;SDS011;17110;52.602;12.998;2024-01-16T06:03:45;3.38;;;2.78;;
30299;SDS011;17110;52.602;12.998;2024-01-16T06:08:45;4.45;;;3.78;;
30299;SDS011;17110;52.602;12.998;2024-01-16T06:13:47;4.28;;;3.00;;
30299;SDS011;17110;52.602;12.998;2024-01-16T06:18:48;4.68;;;3.40;;
30299;SDS011;17110;52.602;12.998;2024-01-16T06:23:48;5.35;;;4.18;;
30299;SDS011;17110;52.602;12.998;2024-01-16T06:28:50;4.78;;;3.75;;
30299;SDS011;17110;52.602;12.998;2024-01-16T06:33:51;7.05;;;4.35;;
30299;SDS011;17110;52.602;12.998;2024-01-16T06:38:52;6.38;;;3.83;;
30299;SDS011;17110;52.602;12.998;2024-01-16T06:43:54;3.65;;;3.20;;
30299;SDS011;17110;52.602;12.998;2024-01-16T06:48:54;5.43;;;3.60;;
30299;SDS011;17110;52.602;12.998;2024-01-16T06:53:55;3.28;;;2.83;;
30299;SDS011;17110;52.602;12.998;2024-01-16T06:58:57;5.32;;;3.88;;
30299;SDS011;17110;52.602;12.998;2024-01-16T07:03:57;4.18;;;3.50;;
30299;SDS011;17110;52.602;12.998;2024-01-16T07:08:58;4.75;;;3.95;;
30299;SDS011;17110;52.602;12.998;2024-01-16T07:14:00;9.45;;;4.07;;
30299;SDS011;17110;52.602;12.998;2024-01-16T07:19:01;5.13;;;3.83;;
30299;SDS011;17110;52.602;12.998;2024-01-16T07:24:02;5.68;;;4.43;;
30299;SDS011;17110;52.602;12.998;2024-01-16T07:29:04;6.18;;;4.32;;
30299;SDS011;17110;52.602;12.998;2024-01-16T07:34:05;8.27;;;4.20;;
30299;SDS011;17110;52.602;12.998;2024-01-16T07:39:05;6.40;;;4.20;;
30299;SDS011;17110;52.602;12.998;2024-01-16T07:44:07;5.85;;;4.40;;
30299;SDS011;17110;52.602;12.998;2024-01-16T07:49:08;7.82;;;4.95;;
30299;SDS011;17110;52.602;12.998;2024-01-16T07:54:09;6.40;;;4.93;;
30299;SDS011;17110;52.602;12.998;2024-01-16T07:59:11;11.73;;;6.10;;
30299;SDS011;17110;52.602;12.998;2024-01-16T08:04:13;8.75;;;6.38;;
30299;SDS011;17110;52.602;12.998;2024-01-16T08:09:13;8.57;;;5.68;;
30299;SDS011;17110;52.602;12.998;2024-01-16T08:14:15;10.32;;;6.35;;
30299;SDS011;17110;52.602;12.998;2024-01-16T08:19:16;7.35;;;5.78;;
30299;SDS011;17110;52.602;12.998;2024-01-16T08:24:17;8.02;;;5.78;;
30299;SDS011;17110;52.602;12.998;2024-01-16T08:29:19;8.75;;;5.68;;
30299;SDS011;17110;52.602;12.998;2024-01-16T08:34:19;7.45;;;5.57;;
30299;SDS011;17110;52.602;12.998;2024-01-16T08:39:20;5.85;;;5.07;;
30299;SDS011;17110;52.602;12.998;2024-01-16T08:44:22;7.57;;;6.10;;
30299;SDS011;17110;52.602;12.998;2024-01-16T08:49:22;7.88;;;6.15;;
30299;SDS011;17110;52.602;12.998;2024-01-16T08:54:23;8.05;;;6.15;;
30299;SDS011;17110;52.602;12.998;2024-01-16T08:59:25;8.65;;;6.15;;
30299;SDS011;17110;52.602;12.998;2024-01-16T09:04:26;10.77;;;7.35;;
30299;SDS011;17110;52.602;12.998;2024-01-16T09:09:26;11.13;;;7.28;;
30299;SDS011;17110;52.602;12.998;2024-01-16T09:14:28;9.82;;;6.50;;
30299;SDS011;17110;52.602;12.998;2024-01-16T09:19:29;7.30;;;5.70;;
30299;SDS011;17110;52.602;12.998;2024-01-16T09:24:30;7.25;;;5.30;;
30299;SDS011;17110;52.602;12.998;2024-01-16T09:29:32;6.88;;;6.15;;
30299;SDS011;17110;52.602;12.998;2024-01-16T09:34:32;6.75;;;4.78;;
30299;SDS011;17110;52.602;12.998;2024-01-16T09:39:33;6.88;;;4.20;;
30299;SDS011;17110;52.602;12.998;2024-01-16T09:44:35;4.05;;;3.65;;
30299;SDS011;17110;52.602;12.998;2024-01-16T09:49:35;4.80;;;4.00;;
30299;SDS011;17110;52.602;12.998;2024-01-16T09:54:37;7.18;;;4.10;;
30299;SDS011;17110;52.602;12.998;2024-01-16T09:59:38;5.45;;;3.28;;
30299;SDS011;17110;52.602;12.998;2024-01-16T10:04:40;4.72;;;3.45;;
30299;SDS011;17110;52.602;12.998;2024-01-16T10:09:42;3.53;;;2.83;;
30299;SDS011;17110;52.602;12.998;2024-01-16T10:14:44;4.53;;;3.53;;
30299;SDS011;17110;52.602;12.998;2024-01-16T10:19:47;4.32;;;2.60;;
30299;SDS011;17110;52.602;12.998;2024-01-16T10:24:48;4.97;;;2.63;;
30299;SDS011;17110;52.602;12.998;2024-01-16T10:29:57;4.38;;;3.60;;
30299;SDS011;17110;52.602;12.998;2024-01-16T10:35:01;3.05;;;2.13;;
30299;SDS011;17110;52.602;12.998;2024-01-16T10:40:03;3.28;;;2.50;;
30299;SDS011;17110;52.602;12.998;2024-01-16T10:45:07;3.92;;;2.20;;
30299;SDS011;17110;52.602;12.998;2024-01-16T10:50:08;6.47;;;2.50;;
30299;SDS011;17110;52.602;12.998;2024-01-16T10:55:09;5.72;;;2.65;;
30299;SDS011;17110;52.602;12.998;2024-01-16T11:00:12;3.42;;;2.20;;
30299;SDS011;17110;52.602;12.998;2024-01-16T11:05:13;5.68;;;2.42;;
30299;SDS011;17110;52.602;12.998;2024-01-16T11:10:16;4.75;;;2.90;;
30299;SDS011;17110;52.602;12.998;2024-01-16T11:15:19;4.18;;;2.60;;
30299;SDS011;17110;52.602;12.998;2024-01-16T11:20:20;5.93;;;3.30;;
30299;SDS011;17110;52.602;12.998;2024-01-16T11:25:21;7.47;;;3.45;;
30299;SDS011;17110;52.602;12.998;2024-01-16T11:30:32;3.90;;;2.77;;
30299;SDS011;17110;52.602;12.998;2024-01-16T11:35:33;5.38;;;3.65;;
30299;SDS011;17110;52.602;12.998;2024-01-16T11:40:35;9.82;;;4.70;;
30299;SDS011;17110;52.602;12.998;2024-01-16T11:45:49;6.60;;;4.28;;
30299;SDS011;17110;52.602;12.998;2024-01-16T11:50:51;9.70;;;4.63;;
30299;SDS011;17110;52.602;12.998;2024-01-16T11:55:55;5.68;;;4.22;;
30299;SDS011;17110;52.602;12.998;2024-01-16T12:01:21;6.60;;;5.10;;
30299;SDS011;17110;52.602;12.998;2024-01-16T12:06:22;8.50;;;5.05;;
30299;SDS011;17110;52.602;12.998;2024-01-16T12:11:23;11.27;;;6.10;;
30299;SDS011;17110;52.602;12.998;2024-01-16T12:16:25;9.18;;;5.18;;
30299;SDS011;17110;52.602;12.998;2024-01-16T12:21:25;8.40;;;5.18;;
30299;SDS011;17110;52.602;12.998;2024-01-16T12:26:26;9.68;;;5.03;;
30299;SDS011;17110;52.602;12.998;2024-01-16T12:31:28;7.25;;;4.35;;
30299;SDS011;17110;52.602;12.998;2024-01-16T12:36:29;8.88;;;4.80;;
30299;SDS011;17110;52.602;12.998;2024-01-16T12:41:31;6.38;;;4.40;;
30299;SDS011;17110;52.602;12.998;2024-01-16T12:46:37;7.97;;;4.68;;
30299;SDS011;17110;52.602;12.998;2024-01-16T12:51:37;6.93;;;3.47;;
30299;SDS011;17110;52.602;12.998;2024-01-16T12:56:38;10.20;;;3.30;;
30299;SDS011;17110;52.602;12.998;2024-01-16T13:01:41;15.02;;;3.92;;
30299;SDS011;17110;52.602;12.998;2024-01-16T13:06:42;6.55;;;3.00;;
30299;SDS011;17110;52.602;12.998;2024-01-16T13:11:47;6.10;;;3.42;;
30299;SDS011;17110;52.602;12.998;2024-01-16T13:16:51;8.93;;;3.58;;
30299;SDS011;17110;52.602;12.998;2024-01-16T13:21:52;6.88;;;3.60;;
30299;SDS011;17110;52.602;12.998;2024-01-16T13:26:53;6.85;;;3.80;;
30299;SDS011;17110;52.602;12.998;2024-01-16T13:31:55;9.15;;;3.55;;
30299;SDS011;17110;52.602;12.998;2024-01-16T13:36:55;6.95;;;3.13;;
30299;SDS011;17110;52.602;12.998;2024-01-16T13:41:58;6.10;;;3.25;;
30299;SDS011;17110;52.602;12.998;2024-01-16T13:47:00;7.50;;;3.67;;
30299;SDS011;17110;52.602;12.998;2024-01-16T13:52:00;8.27;;;3.50;;
30299;SDS011;17110;52.602;12.998;2024-01-16T13:57:01;7.90;;;4.07;;
30299;SDS011;17110;52.602;12.998;2024-01-16T14:02:03;7.90;;;3.75;;
30299;SDS011;17110;52.602;12.998;2024-01-16T14:07:04;8.27;;;4.25;;
30299;SDS011;17110;52.602;12.998;2024-01-16T14:12:05;6.38;;;3.15;;
30299;SDS011;17110;52.602;12.998;2024-01-16T14:17:07;8.68;;;4.25;;
30299;SDS011;17110;52.602;12.998;2024-01-16T14:22:08;5.55;;;3.72;;
30299;SDS011;17110;52.602;12.998;2024-01-16T14:27:08;6.78;;;3.97;;
30299;SDS011;17110;52.602;12.998;2024-01-16T14:32:10;7.60;;;3.60;;
30299;SDS011;17110;52.602;12.998;2024-01-16T14:37:11;7.50;;;3.67;;
30299;SDS011;17110;52.602;12.998;2024-01-16T14:42:12;7.75;;;3.97;;
30299;SDS011;17110;52.602;12.998;2024-01-16T14:47:14;7.70;;;4.18;;
30299;SDS011;17110;52.602;12.998;2024-01-16T14:52:14;8.38;;;4.10;;
30299;SDS011;17110;52.602;12.998;2024-01-16T14:57:15;6.28;;;4.00;;
30299;SDS011;17110;52.602;12.998;2024-01-16T15:02:17;9.52;;;4.75;;
30299;SDS011;17110;52.602;12.998;2024-01-16T15:07:18;8.05;;;3.85;;
30299;SDS011;17110;52.602;12.998;2024-01-16T15:12:18;9.02;;;4.50;;
30299;SDS011;17110;52.602;12.998;2024-01-16T15:17:20;7.05;;;4.40;;
30299;SDS011;17110;52.602;12.998;2024-01-16T15:22:21;11.77;;;7.63;;
30299;SDS011;17110;52.602;12.998;2024-01-16T15:27:22;10.50;;;6.10;;
30299;SDS011;17110;52.602;12.998;2024-01-16T15:32:23;10.43;;;5.40;;
30299;SDS011;17110;52.602;12.998;2024-01-16T15:37:24;8.77;;;4.90;;
30299;SDS011;17110;52.602;12.998;2024-01-16T15:42:25;7.63;;;5.55;;
30299;SDS011;17110;52.602;12.998;2024-01-16T15:47:27;9.80;;;5.80;;
30299;SDS011;17110;52.602;12.998;2024-01-16T15:52:28;10.32;;;6.63;;
30299;SDS011;17110;52.602;12.998;2024-01-16T15:57:29;11.80;;;6.90;;
30299;SDS011;17110;52.602;12.998;2024-01-16T16:02:30;17.60;;;7.63;;
30299;SDS011;17110;52.602;12.998;2024-01-16T16:07:31;17.92;;;8.50;;
30299;SDS011;17110;52.602;12.998;2024-01-16T16:12:32;15.88;;;7.18;;
30299;SDS011;17110;52.602;12.998;2024-01-16T16:17:34;9.65;;;5.72;;
30299;SDS011;17110;52.602;12.998;2024-01-16T16:22:34;10.88;;;5.68;;
30299;SDS011;17110;52.602;12.998;2024-01-16T16:27:35;12.13;;;6.13;;
30299;SDS011;17110;52.602;12.998;2024-01-16T16:32:37;12.25;;;5.30;;
30299;SDS011;17110;52.602;12.998;2024-01-16T16:37:38;13.68;;;6.82;;
30299;SDS011;17110;52.602;12.998;2024-01-16T16:42:38;10.25;;;6.30;;
30299;SDS011;17110;52.602;12.998;2024-01-16T16:47:40;13.18;;;6.47;;
30299;SDS011;17110;52.602;12.998;2024-01-16T16:52:41;9.65;;;6.88;;
30299;SDS011;17110;52.602;12.998;2024-01-16T16:57:42;11.90;;;7.00;;
30299;SDS011;17110;52.602;12.998;2024-01-16T17:02:44;11.05;;;6.88;;
30299;SDS011;17110;52.602;12.998;2024-01-16T17:07:44;8.48;;;5.85;;
30299;SDS011;17110;52.602;12.998;2024-01-16T17:12:45;13.13;;;7.07;;
30299;SDS011;17110;52.602;12.998;2024-01-16T17:17:47;9.55;;;6.40;;
30299;SDS011;17110;52.602;12.998;2024-01-16T17:22:47;9.85;;;6.28;;
30299;SDS011;17110;52.602;12.998;2024-01-16T17:27:48;13.15;;;6.15;;
30299;SDS011;17110;52.602;12.998;2024-01-16T17:32:50;8.05;;;5.82;;
30299;SDS011;17110;52.602;12.998;2024-01-16T17:37:51;10.20;;;5.50;;
30299;SDS011;17110;52.602;12.998;2024-01-16T17:42:51;9.23;;;5.97;;
30299;SDS011;17110;52.602;12.998;2024-01-16T17:47:53;10.75;;;6.63;;
30299;SDS011;17110;52.602;12.998;2024-01-16T17:52:54;10.50;;;6.05;;
30299;SDS011;17110;52.602;12.998;2024-01-16T17:57:55;10.80;;;6.20;;
30299;SDS011;17110;52.602;12.998;2024-01-16T18:02:57;9.25;;;5.45;;
30299;SDS011;17110;52.602;12.998;2024-01-16T18:07:58;9.52;;;6.63;;
30299;SDS011;17110;52.602;12.998;2024-01-16T18:12:59;11.40;;;7.00;;
30299;SDS011;17110;52.602;12.998;2024-01-16T18:18:01;11.63;;;7.57;;
30299;SDS011;17110;52.602;12.998;2024-01-16T18:23:02;12.10;;;8.00;;
30299;SDS011;17110;52.602;12.998;2024-01-16T18:28:03;15.73;;;8.50;;
30299;SDS011;17110;52.602;12.998;2024-01-16T18:33:05;13.48;;;8.75;;
30299;SDS011;17110;52.602;12.998;2024-01-16T18:38:06;15.98;;;10.38;;
30299;SDS011;17110;52.602;12.998;2024-01-16T18:43:06;13.07;;;9.43;;
30299;SDS011;17110;52.602;12.998;2024-01-16T18:48:08;14.95;;;8.65;;
30299;SDS011;17110;52.602;12.998;2024-01-16T18:53:09;12.73;;;9.52;;
30299;SDS011;17110;52.602;12.998;2024-01-16T18:58:09;15.63;;;10.32;;
30299;SDS011;17110;52.602;12.998;2024-01-16T19:03:11;21.20;;;10.70;;
30299;SDS011;17110;52.602;12.998;2024-01-16T19:08:13;16.17;;;10.40;;
30299;SDS011;17110;52.602;12.998;2024-01-16T19:13:17;17.42;;;11.85;;
30299;SDS011;17110;52.602;12.998;2024-01-16T19:18:19;15.55;;;10.88;;
30299;SDS011;17110;52.602;12.998;2024-01-16T19:23:20;20.48;;;12.23;;
30299;SDS011;17110;52.602;12.998;2024-01-16T19:28:21;16.02;;;11.40;;
30299;SDS011;17110;52.602;12.998;2024-01-16T19:33:22;22.80;;;12.68;;
30299;SDS011;17110;52.602;12.998;2024-01-16T19:38:23;25.33;;;13.45;;
30299;SDS011;17110;52.602;12.998;2024-01-16T19:43:24;16.30;;;11.88;;
30299;SDS011;17110;52.602;12.998;2024-01-16T19:48:26;20.63;;;12.95;;
30299;SDS011;17110;52.602;12.998;2024-01-16T19:53:27;15.52;;;12.10;;
30299;SDS011;17110;52.602;12.998;2024-01-16T19:58:27;15.95;;;11.57;;
30299;SDS011;17110;52.602;12.998;2024-01-16T20:03:29;14.18;;;10.68;;
30299;SDS011;17110;52.602;12.998;2024-01-16T20:08:30;15.52;;;11.80;;
30299;SDS011;17110;52.602;12.998;2024-01-16T20:13:31;14.80;;;9.82;;
30299;SDS011;17110;52.602;12.998;2024-01-16T20:18:33;15.52;;;10.45;;
30299;SDS011;17110;52.602;12.998;2024-01-16T20:23:33;16.85;;;10.80;;
30299;SDS011;17110;52.602;12.998;2024-01-16T20:28:34;12.77;;;9.45;;
30299;SDS011;17110;52.602;12.998;2024-01-16T20:33:36;16.55;;;9.05;;
30299;SDS011;17110;52.602;12.998;2024-01-16T20:38:36;13.68;;;9.07;;
30299;SDS011;17110;52.602;12.998;2024-01-16T20:43:37;16.05;;;9.57;;
30299;SDS011;17110;52.602;12.998;2024-01-16T20:48:39;12.75;;;8.23;;
30299;SDS011;17110;52.602;12.998;2024-01-16T20:53:40;10.75;;;7.68;;
30299;SDS011;17110;52.602;12.998;2024-01-16T20:58:40;11.23;;;6.47;;
30299;SDS011;17110;52.602;12.998;2024-01-16T21:03:42;9.77;;;6.63;;
30299;SDS011;17110;52.602;12.998;2024-01-16T21:08:43;8.57;;;6.28;;
30299;SDS011;17110;52.602;12.998;2024-01-16T21:13:44;11.73;;;6.28;;
30299;SDS011;17110;52.602;12.998;2024-01-16T21:18:46;10.00;;;6.05;;
30299;SDS011;17110;52.602;12.998;2024-01-16T21:23:46;8.57;;;6.30;;
30299;SDS011;17110;52.602;12.998;2024-01-16T21:28:47;9.80;;;4.85;;
30299;SDS011;17110;52.602;12.998;2024-01-16T21:33:49;7.07;;;4.20;;
30299;SDS011;17110;52.602;12.998;2024-01-16T21:38:49;7.68;;;4.32;;
30299;SDS011;17110;52.602;12.998;2024-01-16T21:43:50;9.02;;;4.47;;
30299;SDS011;17110;52.602;12.998;2024-01-16T21:48:52;10.38;;;4.32;;
30299;SDS011;17110;52.602;12.998;2024-01-16T21:53:53;10.15;;;4.63;;
30299;SDS011;17110;52.602;12.998;2024-01-16T21:58:53;6.70;;;4.38;;
30299;SDS011;17110;52.602;12.998;2024-01-16T22:03:56;7.03;;;4.50;;
30299;SDS011;17110;52.602;12.998;2024-01-16T22:08:57;7.25;;;5.18;;
30299;SDS011;17110;52.602;12.998;2024-01-16T22:13:57;9.10;;;4.63;;
30299;SDS011;17110;52.602;12.998;2024-01-16T22:18:59;10.07;;;4.38;;
30299;SDS011;17110;52.602;12.998;2024-01-16T22:24:00;9.43;;;4.30;;
30299;SDS011;17110;52.602;12.998;2024-01-16T22:29:01;5.38;;;4.68;;
30299;SDS011;17110;52.602;12.998;2024-01-16T22:34:03;6.57;;;4.90;;
30299;SDS011;17110;52.602;12.998;2024-01-16T22:39:03;7.70;;;5.32;;
30299;SDS011;17110;52.602;12.998;2024-01-16T22:44:04;7.22;;;5.03;;
30299;SDS011;17110;52.602;12.998;2024-01-16T22:49:06;8.48;;;5.55;;
30299;SDS011;17110;52.602;12.998;2024-01-16T22:54:07;8.00;;;4.80;;
30299;SDS011;17110;52.602;12.998;2024-01-16T22:59:08;18.88;;;6.13;;
30299;SDS011;17110;52.602;12.998;2024-01-16T23:04:11;6.25;;;5.50;;
30299;SDS011;17110;52.602;12.998;2024-01-16T23:09:11;11.88;;;6.03;;
30299;SDS011;17110;52.602;12.998;2024-01-16T23:14:12;14.93;;;6.47;;
30299;SDS011;17110;52.602;12.998;2024-01-16T23:19:14;9.73;;;6.50;;
30299;SDS011;17110;52.602;12.998;2024-01-16T23:24:15;8.57;;;5.43;;
30299;SDS011;17110;52.602;12.998;2024-01-16T23:29:15;12.88;;;6.50;;
30299;SDS011;17110;52.602;12.998;2024-01-16T23:34:17;10.15;;;6.03;;
30299;SDS011;17110;52.602;12.998;2024-01-16T23:39:18;10.52;;;6.47;;
30299;SDS011;17110;52.602;12.998;2024-01-16T23:44:19;9.70;;;6.93;;
30299;SDS011;17110;52.602;12.998;2024-01-16T23:49:21;10.88;;;7.05;;
30299;SDS011;17110;52.602;12.998;2024-01-16T23:54:21;8.77;;;6.72;;
30299;SDS011;17110;52.602;12.998;2024-01-16T23:59:22;11.57;;;8.25;;
